sensor_id;sensor_type;location;lat;lon;timestamp;P1;durP1;ratioP1;P2;durP2;ratioP2
18170;SDS011;9210;48.358;10.902;2023-04-03T00:00:55;8.77;;;5.30;;
18170;SDS011;9210;48.358;10.902;2023-04-03T00:03:24;7.03;;;5.47;;
18170;SDS011;9210;48.358;10.902;2023-04-03T00:05:52;8.67;;;5.63;;
18170;SDS011;9210;48.358;10.902;2023-04-03T00:08:22;9.63;;;5.77;;
18170;SDS011;9210;48.358;10.902;2023-04-03T00:10:50;8.50;;;5.50;;
18170;SDS011;9210;48.358;10.902;2023-04-03T00:13:20;8.57;;;5.27;;
18170;SDS011;9210;48.358;10.902;2023-04-03T00:15:48;7.97;;;5.10;;
18170;SDS011;9210;48.358;10.902;2023-04-03T00:18:17;10.37;;;5.27;;
18170;SDS011;9210;48.358;10.902;2023-04-03T00:20:45;8.20;;;5.20;;
18170;SDS011;9210;48.358;10.902;2023-04-03T00:23:14;6.90;;;5.23;;
18170;SDS011;9210;48.358;10.902;2023-04-03T00:25:42;7.83;;;5.10;;
18170;SDS011;9210;48.358;10.902;2023-04-03T00:28:11;8.53;;;4.80;;
18170;SDS011;9210;48.358;10.902;2023-04-03T00:30:41;6.70;;;4.73;;
18170;SDS011;9210;48.358;10.902;2023-04-03T00:33:10;10.33;;;5.17;;
18170;SDS011;9210;48.358;10.902;2023-04-03T00:35:40;7.27;;;4.77;;
18170;SDS011;9210;48.358;10.902;2023-04-03T00:38:08;7.53;;;4.37;;
18170;SDS011;9210;48.358;10.902;2023-04-03T00:40:38;6.93;;;4.37;;
18170;SDS011;9210;48.358;10.902;2023-04-03T00:43:09;7.13;;;4.43;;
18170;SDS011;9210;48.358;10.902;2023-04-03T00:45:39;8.50;;;4.67;;
18170;SDS011;9210;48.358;10.902;2023-04-03T00:48:09;9.20;;;4.27;;
18170;SDS011;9210;48.358;10.902;2023-04-03T00:50:39;6.43;;;4.13;;
18170;SDS011;9210;48.358;10.902;2023-04-03T00:53:09;7.47;;;4.33;;
18170;SDS011;9210;48.358;10.902;2023-04-03T00:55:39;5.73;;;4.03;;
18170;SDS011;9210;48.358;10.902;2023-04-03T00:58:09;7.33;;;4.33;;
18170;SDS011;9210;48.358;10.902;2023-04-03T01:00:38;6.07;;;4.10;;
18170;SDS011;9210;48.358;10.902;2023-04-03T01:03:09;6.23;;;4.20;;
18170;SDS011;9210;48.358;10.902;2023-04-03T01:05:39;5.83;;;4.13;;
18170;SDS011;9210;48.358;10.902;2023-04-03T01:08:08;7.97;;;3.77;;
18170;SDS011;9210;48.358;10.902;2023-04-03T01:10:36;5.43;;;3.87;;
18170;SDS011;9210;48.358;10.902;2023-04-03T01:13:17;5.90;;;3.93;;
18170;SDS011;9210;48.358;10.902;2023-04-03T01:15:46;5.30;;;3.70;;
18170;SDS011;9210;48.358;10.902;2023-04-03T01:18:15;5.20;;;3.70;;
18170;SDS011;9210;48.358;10.902;2023-04-03T01:23:41;6.53;;;3.43;;
18170;SDS011;9210;48.358;10.902;2023-04-03T01:26:11;5.37;;;3.57;;
18170;SDS011;9210;48.358;10.902;2023-04-03T01:28:40;4.77;;;3.40;;
18170;SDS011;9210;48.358;10.902;2023-04-03T01:31:10;6.80;;;3.50;;
18170;SDS011;9210;48.358;10.902;2023-04-03T01:33:44;6.20;;;3.90;;
18170;SDS011;9210;48.358;10.902;2023-04-03T01:36:13;6.43;;;3.60;;
18170;SDS011;9210;48.358;10.902;2023-04-03T01:38:42;8.07;;;3.30;;
18170;SDS011;9210;48.358;10.902;2023-04-03T01:41:11;5.50;;;3.60;;
18170;SDS011;9210;48.358;10.902;2023-04-03T01:43:40;5.37;;;3.23;;
18170;SDS011;9210;48.358;10.902;2023-04-03T01:46:08;5.53;;;3.40;;
18170;SDS011;9210;48.358;10.902;2023-04-03T01:48:37;6.90;;;3.60;;
18170;SDS011;9210;48.358;10.902;2023-04-03T01:51:07;4.83;;;3.33;;
18170;SDS011;9210;48.358;10.902;2023-04-03T01:53:35;3.67;;;2.93;;
18170;SDS011;9210;48.358;10.902;2023-04-03T01:56:04;4.50;;;3.50;;
18170;SDS011;9210;48.358;10.902;2023-04-03T01:58:33;6.23;;;3.47;;
18170;SDS011;9210;48.358;10.902;2023-04-03T02:01:01;8.13;;;3.50;;
18170;SDS011;9210;48.358;10.902;2023-04-03T02:03:30;5.47;;;3.60;;
18170;SDS011;9210;48.358;10.902;2023-04-03T02:05:58;5.27;;;3.40;;
18170;SDS011;9210;48.358;10.902;2023-04-03T02:08:28;7.67;;;3.20;;
18170;SDS011;9210;48.358;10.902;2023-04-03T02:10:57;4.97;;;3.30;;
18170;SDS011;9210;48.358;10.902;2023-04-03T02:13:25;6.80;;;3.60;;
18170;SDS011;9210;48.358;10.902;2023-04-03T02:15:54;6.57;;;3.60;;
18170;SDS011;9210;48.358;10.902;2023-04-03T02:18:22;9.53;;;3.90;;
18170;SDS011;9210;48.358;10.902;2023-04-03T02:20:50;5.93;;;3.50;;
18170;SDS011;9210;48.358;10.902;2023-04-03T02:23:19;7.37;;;3.47;;
18170;SDS011;9210;48.358;10.902;2023-04-03T02:25:50;6.33;;;3.30;;
18170;SDS011;9210;48.358;10.902;2023-04-03T02:28:22;6.40;;;3.77;;
18170;SDS011;9210;48.358;10.902;2023-04-03T02:30:51;4.40;;;3.17;;
18170;SDS011;9210;48.358;10.902;2023-04-03T02:33:19;6.77;;;3.80;;
18170;SDS011;9210;48.358;10.902;2023-04-03T02:35:51;5.57;;;3.47;;
18170;SDS011;9210;48.358;10.902;2023-04-03T02:38:21;5.30;;;3.37;;
18170;SDS011;9210;48.358;10.902;2023-04-03T02:40:51;7.13;;;3.50;;
18170;SDS011;9210;48.358;10.902;2023-04-03T02:43:19;5.73;;;3.40;;
18170;SDS011;9210;48.358;10.902;2023-04-03T02:45:48;6.70;;;3.63;;
18170;SDS011;9210;48.358;10.902;2023-04-03T02:48:16;5.30;;;3.70;;
18170;SDS011;9210;48.358;10.902;2023-04-03T02:50:45;6.20;;;3.70;;
18170;SDS011;9210;48.358;10.902;2023-04-03T02:53:13;7.40;;;3.80;;
18170;SDS011;9210;48.358;10.902;2023-04-03T02:55:42;7.03;;;4.00;;
18170;SDS011;9210;48.358;10.902;2023-04-03T02:58:12;5.23;;;3.63;;
18170;SDS011;9210;48.358;10.902;2023-04-03T03:00:40;6.90;;;4.07;;
18170;SDS011;9210;48.358;10.902;2023-04-03T03:03:09;6.90;;;3.47;;
18170;SDS011;9210;48.358;10.902;2023-04-03T03:05:37;5.47;;;3.90;;
18170;SDS011;9210;48.358;10.902;2023-04-03T03:08:05;8.93;;;3.80;;
18170;SDS011;9210;48.358;10.902;2023-04-03T03:10:34;6.17;;;4.00;;
18170;SDS011;9210;48.358;10.902;2023-04-03T03:13:03;6.60;;;4.00;;
18170;SDS011;9210;48.358;10.902;2023-04-03T03:15:33;7.83;;;3.90;;
18170;SDS011;9210;48.358;10.902;2023-04-03T03:18:01;6.60;;;3.60;;
18170;SDS011;9210;48.358;10.902;2023-04-03T03:20:30;6.93;;;3.90;;
18170;SDS011;9210;48.358;10.902;2023-04-03T03:22:58;6.53;;;3.80;;
18170;SDS011;9210;48.358;10.902;2023-04-03T03:25:27;6.33;;;4.00;;
18170;SDS011;9210;48.358;10.902;2023-04-03T03:27:55;5.33;;;3.60;;
18170;SDS011;9210;48.358;10.902;2023-04-03T03:30:24;4.93;;;3.97;;
18170;SDS011;9210;48.358;10.902;2023-04-03T03:32:54;6.60;;;4.07;;
18170;SDS011;9210;48.358;10.902;2023-04-03T03:35:22;6.30;;;4.20;;
18170;SDS011;9210;48.358;10.902;2023-04-03T03:37:51;6.67;;;3.80;;
18170;SDS011;9210;48.358;10.902;2023-04-03T03:40:19;6.17;;;4.00;;
18170;SDS011;9210;48.358;10.902;2023-04-03T03:42:48;6.33;;;3.93;;
18170;SDS011;9210;48.358;10.902;2023-04-03T03:45:17;7.27;;;3.83;;
18170;SDS011;9210;48.358;10.902;2023-04-03T03:47:45;7.63;;;3.90;;
18170;SDS011;9210;48.358;10.902;2023-04-03T03:50:16;6.53;;;4.10;;
18170;SDS011;9210;48.358;10.902;2023-04-03T03:52:44;7.20;;;4.10;;
18170;SDS011;9210;48.358;10.902;2023-04-03T03:55:13;7.40;;;4.20;;
18170;SDS011;9210;48.358;10.902;2023-04-03T03:57:41;6.97;;;4.33;;
18170;SDS011;9210;48.358;10.902;2023-04-03T04:00:10;6.17;;;4.07;;
18170;SDS011;9210;48.358;10.902;2023-04-03T04:02:46;10.63;;;4.20;;
18170;SDS011;9210;48.358;10.902;2023-04-03T04:05:19;7.97;;;4.27;;
18170;SDS011;9210;48.358;10.902;2023-04-03T04:07:48;7.93;;;4.57;;
18170;SDS011;9210;48.358;10.902;2023-04-03T04:10:17;8.83;;;4.57;;
18170;SDS011;9210;48.358;10.902;2023-04-03T04:12:46;6.90;;;4.00;;
18170;SDS011;9210;48.358;10.902;2023-04-03T04:15:16;7.57;;;4.67;;
18170;SDS011;9210;48.358;10.902;2023-04-03T04:17:45;6.57;;;4.20;;
18170;SDS011;9210;48.358;10.902;2023-04-03T04:20:14;9.87;;;4.50;;
18170;SDS011;9210;48.358;10.902;2023-04-03T04:22:44;6.43;;;4.20;;
18170;SDS011;9210;48.358;10.902;2023-04-03T04:25:12;7.50;;;4.57;;
18170;SDS011;9210;48.358;10.902;2023-04-03T04:27:41;8.80;;;4.50;;
18170;SDS011;9210;48.358;10.902;2023-04-03T04:30:12;7.00;;;4.50;;
18170;SDS011;9210;48.358;10.902;2023-04-03T04:32:43;9.47;;;4.27;;
18170;SDS011;9210;48.358;10.902;2023-04-03T04:35:12;10.00;;;5.10;;
18170;SDS011;9210;48.358;10.902;2023-04-03T04:37:46;8.37;;;4.47;;
18170;SDS011;9210;48.358;10.902;2023-04-03T04:40:15;7.40;;;4.23;;
18170;SDS011;9210;48.358;10.902;2023-04-03T04:42:44;7.67;;;4.63;;
18170;SDS011;9210;48.358;10.902;2023-04-03T04:45:12;9.20;;;4.70;;
18170;SDS011;9210;48.358;10.902;2023-04-03T04:47:44;7.53;;;4.70;;
18170;SDS011;9210;48.358;10.902;2023-04-03T04:50:13;10.00;;;4.73;;
18170;SDS011;9210;48.358;10.902;2023-04-03T04:52:43;6.00;;;4.53;;
18170;SDS011;9210;48.358;10.902;2023-04-03T04:55:13;8.73;;;4.33;;
18170;SDS011;9210;48.358;10.902;2023-04-03T04:57:42;6.87;;;4.03;;
18170;SDS011;9210;48.358;10.902;2023-04-03T05:00:12;8.73;;;4.50;;
18170;SDS011;9210;48.358;10.902;2023-04-03T05:02:42;7.27;;;4.53;;
18170;SDS011;9210;48.358;10.902;2023-04-03T05:05:11;7.67;;;4.57;;
18170;SDS011;9210;48.358;10.902;2023-04-03T05:07:41;9.43;;;4.70;;
18170;SDS011;9210;48.358;10.902;2023-04-03T05:10:09;6.90;;;4.63;;
18170;SDS011;9210;48.358;10.902;2023-04-03T05:12:40;7.83;;;4.57;;
18170;SDS011;9210;48.358;10.902;2023-04-03T05:15:08;9.83;;;4.80;;
18170;SDS011;9210;48.358;10.902;2023-04-03T05:17:37;9.73;;;4.57;;
18170;SDS011;9210;48.358;10.902;2023-04-03T05:20:10;7.93;;;4.80;;
18170;SDS011;9210;48.358;10.902;2023-04-03T05:22:40;7.83;;;5.10;;
18170;SDS011;9210;48.358;10.902;2023-04-03T05:25:09;15.50;;;6.40;;
18170;SDS011;9210;48.358;10.902;2023-04-03T05:27:42;8.93;;;4.73;;
18170;SDS011;9210;48.358;10.902;2023-04-03T05:30:11;9.83;;;4.50;;
18170;SDS011;9210;48.358;10.902;2023-04-03T05:32:41;8.77;;;5.10;;
18170;SDS011;9210;48.358;10.902;2023-04-03T05:35:16;8.13;;;4.33;;
18170;SDS011;9210;48.358;10.902;2023-04-03T05:37:47;9.33;;;4.90;;
18170;SDS011;9210;48.358;10.902;2023-04-03T05:40:16;9.13;;;4.77;;
18170;SDS011;9210;48.358;10.902;2023-04-03T05:42:50;8.10;;;4.83;;
18170;SDS011;9210;48.358;10.902;2023-04-03T05:45:22;8.53;;;4.90;;
18170;SDS011;9210;48.358;10.902;2023-04-03T05:47:50;6.63;;;5.03;;
18170;SDS011;9210;48.358;10.902;2023-04-03T05:50:19;9.77;;;5.40;;
18170;SDS011;9210;48.358;10.902;2023-04-03T05:52:50;9.60;;;5.23;;
18170;SDS011;9210;48.358;10.902;2023-04-03T05:55:20;8.57;;;5.00;;
18170;SDS011;9210;48.358;10.902;2023-04-03T05:57:50;9.33;;;5.33;;
18170;SDS011;9210;48.358;10.902;2023-04-03T06:00:19;8.53;;;5.00;;
18170;SDS011;9210;48.358;10.902;2023-04-03T06:02:58;8.33;;;5.20;;
18170;SDS011;9210;48.358;10.902;2023-04-03T06:05:27;9.73;;;5.53;;
18170;SDS011;9210;48.358;10.902;2023-04-03T06:07:56;10.57;;;5.13;;
18170;SDS011;9210;48.358;10.902;2023-04-03T06:10:24;9.77;;;5.53;;
18170;SDS011;9210;48.358;10.902;2023-04-03T06:12:54;9.40;;;5.33;;
18170;SDS011;9210;48.358;10.902;2023-04-03T06:15:23;8.50;;;5.47;;
18170;SDS011;9210;48.358;10.902;2023-04-03T06:17:51;10.10;;;5.67;;
18170;SDS011;9210;48.358;10.902;2023-04-03T06:20:20;10.07;;;5.63;;
18170;SDS011;9210;48.358;10.902;2023-04-03T06:22:49;9.63;;;5.40;;
18170;SDS011;9210;48.358;10.902;2023-04-03T06:25:18;9.97;;;5.67;;
18170;SDS011;9210;48.358;10.902;2023-04-03T06:27:47;9.33;;;5.70;;
18170;SDS011;9210;48.358;10.902;2023-04-03T06:30:17;10.73;;;5.23;;
18170;SDS011;9210;48.358;10.902;2023-04-03T06:32:45;9.07;;;6.17;;
18170;SDS011;9210;48.358;10.902;2023-04-03T06:35:14;10.00;;;5.93;;
18170;SDS011;9210;48.358;10.902;2023-04-03T06:37:42;11.87;;;5.80;;
18170;SDS011;9210;48.358;10.902;2023-04-03T06:40:13;8.27;;;5.67;;
18170;SDS011;9210;48.358;10.902;2023-04-03T06:42:43;9.03;;;6.30;;
18170;SDS011;9210;48.358;10.902;2023-04-03T06:45:12;14.03;;;6.33;;
18170;SDS011;9210;48.358;10.902;2023-04-03T06:47:41;13.43;;;6.43;;
18170;SDS011;9210;48.358;10.902;2023-04-03T06:50:11;10.47;;;6.43;;
18170;SDS011;9210;48.358;10.902;2023-04-03T06:52:41;16.90;;;6.77;;
18170;SDS011;9210;48.358;10.902;2023-04-03T06:55:09;10.33;;;5.77;;
18170;SDS011;9210;48.358;10.902;2023-04-03T06:57:38;9.57;;;5.70;;
18170;SDS011;9210;48.358;10.902;2023-04-03T07:00:12;11.67;;;5.80;;
18170;SDS011;9210;48.358;10.902;2023-04-03T07:02:42;9.37;;;5.87;;
18170;SDS011;9210;48.358;10.902;2023-04-03T07:05:11;13.17;;;5.60;;
18170;SDS011;9210;48.358;10.902;2023-04-03T07:07:40;10.07;;;5.30;;
18170;SDS011;9210;48.358;10.902;2023-04-03T07:10:08;8.30;;;5.43;;
18170;SDS011;9210;48.358;10.902;2023-04-03T07:12:37;11.40;;;5.53;;
18170;SDS011;9210;48.358;10.902;2023-04-03T07:15:06;8.63;;;4.93;;
18170;SDS011;9210;48.358;10.902;2023-04-03T07:17:35;9.63;;;5.90;;
18170;SDS011;9210;48.358;10.902;2023-04-03T07:20:07;8.60;;;5.50;;
18170;SDS011;9210;48.358;10.902;2023-04-03T07:22:36;11.37;;;5.93;;
18170;SDS011;9210;48.358;10.902;2023-04-03T07:25:05;12.43;;;5.70;;
18170;SDS011;9210;48.358;10.902;2023-04-03T07:27:33;7.13;;;5.00;;
18170;SDS011;9210;48.358;10.902;2023-04-03T07:30:02;10.73;;;5.20;;
18170;SDS011;9210;48.358;10.902;2023-04-03T07:32:32;12.40;;;5.83;;
18170;SDS011;9210;48.358;10.902;2023-04-03T07:35:01;10.53;;;5.43;;
18170;SDS011;9210;48.358;10.902;2023-04-03T07:37:31;9.37;;;5.43;;
18170;SDS011;9210;48.358;10.902;2023-04-03T07:39:59;11.03;;;5.20;;
18170;SDS011;9210;48.358;10.902;2023-04-03T07:42:31;13.37;;;5.10;;
18170;SDS011;9210;48.358;10.902;2023-04-03T07:44:59;9.07;;;4.80;;
18170;SDS011;9210;48.358;10.902;2023-04-03T07:47:27;9.20;;;4.77;;
18170;SDS011;9210;48.358;10.902;2023-04-03T07:49:56;7.20;;;5.07;;
18170;SDS011;9210;48.358;10.902;2023-04-03T07:52:25;9.23;;;5.00;;
18170;SDS011;9210;48.358;10.902;2023-04-03T07:54:55;7.33;;;4.70;;
18170;SDS011;9210;48.358;10.902;2023-04-03T07:57:23;7.13;;;4.50;;
18170;SDS011;9210;48.358;10.902;2023-04-03T07:59:51;5.53;;;4.40;;
18170;SDS011;9210;48.358;10.902;2023-04-03T08:02:20;11.13;;;4.83;;
18170;SDS011;9210;48.358;10.902;2023-04-03T08:04:48;10.77;;;5.47;;
18170;SDS011;9210;48.358;10.902;2023-04-03T08:07:17;7.53;;;4.60;;
18170;SDS011;9210;48.358;10.902;2023-04-03T08:09:46;11.17;;;4.60;;
18170;SDS011;9210;48.358;10.902;2023-04-03T08:12:15;8.67;;;4.47;;
18170;SDS011;9210;48.358;10.902;2023-04-03T08:14:44;9.13;;;4.87;;
18170;SDS011;9210;48.358;10.902;2023-04-03T08:17:12;7.97;;;4.63;;
18170;SDS011;9210;48.358;10.902;2023-04-03T08:19:41;10.50;;;4.43;;
18170;SDS011;9210;48.358;10.902;2023-04-03T08:22:12;8.83;;;4.60;;
18170;SDS011;9210;48.358;10.902;2023-04-03T08:24:42;11.87;;;4.40;;
18170;SDS011;9210;48.358;10.902;2023-04-03T08:27:25;13.50;;;5.00;;
18170;SDS011;9210;48.358;10.902;2023-04-03T08:29:54;6.57;;;4.03;;
18170;SDS011;9210;48.358;10.902;2023-04-03T08:32:23;8.57;;;4.50;;
18170;SDS011;9210;48.358;10.902;2023-04-03T08:34:52;12.20;;;4.73;;
18170;SDS011;9210;48.358;10.902;2023-04-03T08:37:20;7.67;;;4.33;;
18170;SDS011;9210;48.358;10.902;2023-04-03T08:39:49;10.57;;;4.37;;
18170;SDS011;9210;48.358;10.902;2023-04-03T08:42:19;32.07;;;5.80;;
18170;SDS011;9210;48.358;10.902;2023-04-03T08:44:54;8.87;;;3.93;;
18170;SDS011;9210;48.358;10.902;2023-04-03T08:47:26;16.07;;;4.00;;
18170;SDS011;9210;48.358;10.902;2023-04-03T08:49:58;8.77;;;4.10;;
18170;SDS011;9210;48.358;10.902;2023-04-03T08:52:31;5.43;;;3.47;;
18170;SDS011;9210;48.358;10.902;2023-04-03T08:55:00;8.63;;;3.60;;
18170;SDS011;9210;48.358;10.902;2023-04-03T08:57:30;6.93;;;3.77;;
18170;SDS011;9210;48.358;10.902;2023-04-03T09:00:02;6.40;;;3.57;;
18170;SDS011;9210;48.358;10.902;2023-04-03T09:02:34;6.10;;;3.60;;
18170;SDS011;9210;48.358;10.902;2023-04-03T09:05:05;10.43;;;3.37;;
18170;SDS011;9210;48.358;10.902;2023-04-03T09:07:42;5.70;;;3.47;;
18170;SDS011;9210;48.358;10.902;2023-04-03T09:10:15;6.13;;;3.43;;
18170;SDS011;9210;48.358;10.902;2023-04-03T09:12:44;7.23;;;3.67;;
18170;SDS011;9210;48.358;10.902;2023-04-03T09:15:17;6.73;;;3.90;;
18170;SDS011;9210;48.358;10.902;2023-04-03T09:18:04;5.53;;;3.43;;
18170;SDS011;9210;48.358;10.902;2023-04-03T09:20:38;6.73;;;3.70;;
18170;SDS011;9210;48.358;10.902;2023-04-03T09:23:13;6.37;;;3.43;;
18170;SDS011;9210;48.358;10.902;2023-04-03T09:25:43;6.67;;;3.80;;
18170;SDS011;9210;48.358;10.902;2023-04-03T09:28:14;8.17;;;3.93;;
18170;SDS011;9210;48.358;10.902;2023-04-03T09:30:44;5.87;;;3.60;;
18170;SDS011;9210;48.358;10.902;2023-04-03T09:33:12;7.43;;;3.50;;
18170;SDS011;9210;48.358;10.902;2023-04-03T09:35:42;6.30;;;2.93;;
18170;SDS011;9210;48.358;10.902;2023-04-03T09:38:15;5.80;;;3.47;;
18170;SDS011;9210;48.358;10.902;2023-04-03T09:40:45;7.50;;;3.40;;
18170;SDS011;9210;48.358;10.902;2023-04-03T09:43:21;8.17;;;3.70;;
18170;SDS011;9210;48.358;10.902;2023-04-03T09:45:52;8.70;;;3.90;;
18170;SDS011;9210;48.358;10.902;2023-04-03T09:48:22;8.77;;;3.87;;
18170;SDS011;9210;48.358;10.902;2023-04-03T09:50:55;9.67;;;3.97;;
18170;SDS011;9210;48.358;10.902;2023-04-03T09:53:26;7.13;;;3.67;;
18170;SDS011;9210;48.358;10.902;2023-04-03T09:55:55;6.50;;;3.60;;
18170;SDS011;9210;48.358;10.902;2023-04-03T09:58:25;8.67;;;3.43;;
18170;SDS011;9210;48.358;10.902;2023-04-03T10:01:22;7.03;;;3.60;;
18170;SDS011;9210;48.358;10.902;2023-04-03T10:04:02;8.63;;;3.73;;
18170;SDS011;9210;48.358;10.902;2023-04-03T10:06:32;7.20;;;3.77;;
18170;SDS011;9210;48.358;10.902;2023-04-03T10:09:02;11.20;;;3.70;;
18170;SDS011;9210;48.358;10.902;2023-04-03T10:11:32;8.13;;;3.83;;
18170;SDS011;9210;48.358;10.902;2023-04-03T10:14:01;7.13;;;4.10;;
18170;SDS011;9210;48.358;10.902;2023-04-03T10:16:36;10.27;;;4.70;;
18170;SDS011;9210;48.358;10.902;2023-04-03T10:19:16;7.10;;;4.07;;
18170;SDS011;9210;48.358;10.902;2023-04-03T10:21:46;7.40;;;3.77;;
18170;SDS011;9210;48.358;10.902;2023-04-03T10:24:17;5.93;;;3.80;;
18170;SDS011;9210;48.358;10.902;2023-04-03T10:26:51;5.33;;;4.00;;
18170;SDS011;9210;48.358;10.902;2023-04-03T10:29:23;6.87;;;3.83;;
18170;SDS011;9210;48.358;10.902;2023-04-03T10:31:55;9.47;;;3.67;;
18170;SDS011;9210;48.358;10.902;2023-04-03T10:34:25;6.47;;;4.13;;
18170;SDS011;9210;48.358;10.902;2023-04-03T10:36:58;8.27;;;3.77;;
18170;SDS011;9210;48.358;10.902;2023-04-03T10:39:30;9.43;;;4.00;;
18170;SDS011;9210;48.358;10.902;2023-04-03T10:42:03;8.57;;;3.90;;
18170;SDS011;9210;48.358;10.902;2023-04-03T10:44:50;6.47;;;3.90;;
18170;SDS011;9210;48.358;10.902;2023-04-03T10:47:21;11.67;;;3.83;;
18170;SDS011;9210;48.358;10.902;2023-04-03T10:49:54;8.57;;;3.80;;
18170;SDS011;9210;48.358;10.902;2023-04-03T10:52:27;7.33;;;3.93;;
18170;SDS011;9210;48.358;10.902;2023-04-03T10:55:02;8.23;;;3.53;;
18170;SDS011;9210;48.358;10.902;2023-04-03T10:57:33;7.93;;;3.90;;
18170;SDS011;9210;48.358;10.902;2023-04-03T11:00:03;5.97;;;3.73;;
18170;SDS011;9210;48.358;10.902;2023-04-03T11:02:36;7.70;;;3.90;;
18170;SDS011;9210;48.358;10.902;2023-04-03T11:05:06;8.33;;;4.50;;
18170;SDS011;9210;48.358;10.902;2023-04-03T11:07:37;6.10;;;3.83;;
18170;SDS011;9210;48.358;10.902;2023-04-03T11:10:09;10.80;;;4.40;;
18170;SDS011;9210;48.358;10.902;2023-04-03T11:12:41;9.63;;;4.20;;
18170;SDS011;9210;48.358;10.902;2023-04-03T11:15:12;8.20;;;4.17;;
18170;SDS011;9210;48.358;10.902;2023-04-03T11:17:45;7.27;;;3.73;;
18170;SDS011;9210;48.358;10.902;2023-04-03T11:20:17;4.63;;;3.53;;
18170;SDS011;9210;48.358;10.902;2023-04-03T11:22:48;7.80;;;3.80;;
18170;SDS011;9210;48.358;10.902;2023-04-03T11:25:19;8.50;;;3.97;;
18170;SDS011;9210;48.358;10.902;2023-04-03T11:27:49;8.20;;;3.80;;
18170;SDS011;9210;48.358;10.902;2023-04-03T11:30:19;5.73;;;4.00;;
18170;SDS011;9210;48.358;10.902;2023-04-03T11:32:54;12.00;;;4.47;;
18170;SDS011;9210;48.358;10.902;2023-04-03T11:35:27;8.10;;;4.00;;
18170;SDS011;9210;48.358;10.902;2023-04-03T11:37:55;8.07;;;3.80;;
18170;SDS011;9210;48.358;10.902;2023-04-03T11:40:25;7.07;;;3.37;;
18170;SDS011;9210;48.358;10.902;2023-04-03T11:42:54;9.07;;;4.33;;
18170;SDS011;9210;48.358;10.902;2023-04-03T11:45:26;8.63;;;3.73;;
18170;SDS011;9210;48.358;10.902;2023-04-03T11:47:58;9.13;;;4.17;;
18170;SDS011;9210;48.358;10.902;2023-04-03T11:50:43;7.90;;;3.63;;
18170;SDS011;9210;48.358;10.902;2023-04-03T11:53:31;9.63;;;3.40;;
18170;SDS011;9210;48.358;10.902;2023-04-03T11:56:06;8.47;;;3.80;;
18170;SDS011;9210;48.358;10.902;2023-04-03T12:01:43;6.13;;;3.20;;
18170;SDS011;9210;48.358;10.902;2023-04-03T12:04:14;6.27;;;3.00;;
18170;SDS011;9210;48.358;10.902;2023-04-03T12:12:34;5.97;;;2.80;;
18170;SDS011;9210;48.358;10.902;2023-04-03T12:15:21;6.03;;;2.70;;
18170;SDS011;9210;48.358;10.902;2023-04-03T12:17:51;6.50;;;3.03;;
18170;SDS011;9210;48.358;10.902;2023-04-03T12:23:17;6.97;;;2.80;;
18170;SDS011;9210;48.358;10.902;2023-04-03T12:25:51;6.63;;;3.00;;
18170;SDS011;9210;48.358;10.902;2023-04-03T12:28:20;6.33;;;2.80;;
18170;SDS011;9210;48.358;10.902;2023-04-03T12:30:49;4.63;;;2.57;;
18170;SDS011;9210;48.358;10.902;2023-04-03T12:33:20;5.33;;;2.67;;
18170;SDS011;9210;48.358;10.902;2023-04-03T12:35:56;4.10;;;2.27;;
18170;SDS011;9210;48.358;10.902;2023-04-03T12:38:39;5.13;;;2.50;;
18170;SDS011;9210;48.358;10.902;2023-04-03T12:41:15;5.10;;;2.60;;
18170;SDS011;9210;48.358;10.902;2023-04-03T12:43:50;4.53;;;2.80;;
18170;SDS011;9210;48.358;10.902;2023-04-03T12:46:28;8.07;;;2.30;;
18170;SDS011;9210;48.358;10.902;2023-04-03T12:49:05;4.33;;;2.37;;
18170;SDS011;9210;48.358;10.902;2023-04-03T12:51:41;4.40;;;2.60;;
18170;SDS011;9210;48.358;10.902;2023-04-03T12:54:14;5.17;;;2.27;;
18170;SDS011;9210;48.358;10.902;2023-04-03T12:56:43;5.23;;;2.30;;
18170;SDS011;9210;48.358;10.902;2023-04-03T12:59:13;5.50;;;2.37;;
18170;SDS011;9210;48.358;10.902;2023-04-03T13:01:43;4.30;;;2.30;;
18170;SDS011;9210;48.358;10.902;2023-04-03T13:04:12;3.47;;;2.23;;
18170;SDS011;9210;48.358;10.902;2023-04-03T13:06:41;4.07;;;2.50;;
18170;SDS011;9210;48.358;10.902;2023-04-03T13:09:20;3.63;;;2.30;;
18170;SDS011;9210;48.358;10.902;2023-04-03T13:11:49;9.33;;;2.60;;
18170;SDS011;9210;48.358;10.902;2023-04-03T13:14:19;3.40;;;2.30;;
18170;SDS011;9210;48.358;10.902;2023-04-03T13:16:54;3.60;;;2.00;;
18170;SDS011;9210;48.358;10.902;2023-04-03T13:19:24;4.70;;;2.30;;
18170;SDS011;9210;48.358;10.902;2023-04-03T13:21:57;7.83;;;2.50;;
18170;SDS011;9210;48.358;10.902;2023-04-03T13:24:28;3.90;;;2.30;;
18170;SDS011;9210;48.358;10.902;2023-04-03T13:26:57;5.30;;;1.90;;
18170;SDS011;9210;48.358;10.902;2023-04-03T13:29:26;5.13;;;2.50;;
18170;SDS011;9210;48.358;10.902;2023-04-03T13:31:57;4.23;;;2.17;;
18170;SDS011;9210;48.358;10.902;2023-04-03T13:34:29;5.73;;;2.30;;
18170;SDS011;9210;48.358;10.902;2023-04-03T13:36:58;5.47;;;1.90;;
18170;SDS011;9210;48.358;10.902;2023-04-03T13:39:29;6.87;;;2.10;;
18170;SDS011;9210;48.358;10.902;2023-04-03T13:41:58;3.83;;;1.83;;
18170;SDS011;9210;48.358;10.902;2023-04-03T13:44:32;3.50;;;1.70;;
18170;SDS011;9210;48.358;10.902;2023-04-03T13:47:14;3.90;;;1.90;;
18170;SDS011;9210;48.358;10.902;2023-04-03T13:49:43;3.40;;;1.90;;
18170;SDS011;9210;48.358;10.902;2023-04-03T13:52:20;4.17;;;1.97;;
18170;SDS011;9210;48.358;10.902;2023-04-03T13:54:58;3.63;;;1.80;;
18170;SDS011;9210;48.358;10.902;2023-04-03T13:57:31;3.80;;;1.70;;
18170;SDS011;9210;48.358;10.902;2023-04-03T14:00:00;4.17;;;1.80;;
18170;SDS011;9210;48.358;10.902;2023-04-03T14:02:47;4.60;;;1.90;;
18170;SDS011;9210;48.358;10.902;2023-04-03T14:05:16;3.30;;;1.83;;
18170;SDS011;9210;48.358;10.902;2023-04-03T14:07:47;4.57;;;1.90;;
18170;SDS011;9210;48.358;10.902;2023-04-03T14:10:17;3.63;;;1.77;;
18170;SDS011;9210;48.358;10.902;2023-04-03T14:12:46;4.37;;;1.80;;
18170;SDS011;9210;48.358;10.902;2023-04-03T14:15:16;5.20;;;2.10;;
18170;SDS011;9210;48.358;10.902;2023-04-03T14:17:46;4.07;;;1.90;;
18170;SDS011;9210;48.358;10.902;2023-04-03T14:20:15;3.80;;;2.00;;
18170;SDS011;9210;48.358;10.902;2023-04-03T14:22:44;4.63;;;1.70;;
18170;SDS011;9210;48.358;10.902;2023-04-03T14:25:12;3.17;;;1.83;;
18170;SDS011;9210;48.358;10.902;2023-04-03T14:27:43;3.07;;;1.70;;
18170;SDS011;9210;48.358;10.902;2023-04-03T14:30:15;7.80;;;1.80;;
18170;SDS011;9210;48.358;10.902;2023-04-03T14:32:46;4.37;;;1.87;;
18170;SDS011;9210;48.358;10.902;2023-04-03T14:35:15;5.23;;;1.83;;
18170;SDS011;9210;48.358;10.902;2023-04-03T14:37:44;4.50;;;1.90;;
18170;SDS011;9210;48.358;10.902;2023-04-03T14:40:15;4.07;;;1.70;;
18170;SDS011;9210;48.358;10.902;2023-04-03T14:42:46;4.47;;;1.60;;
18170;SDS011;9210;48.358;10.902;2023-04-03T14:45:15;2.37;;;1.40;;
18170;SDS011;9210;48.358;10.902;2023-04-03T14:47:45;5.37;;;1.40;;
18170;SDS011;9210;48.358;10.902;2023-04-03T14:50:15;4.00;;;1.80;;
18170;SDS011;9210;48.358;10.902;2023-04-03T14:52:44;2.77;;;1.30;;
18170;SDS011;9210;48.358;10.902;2023-04-03T14:55:17;4.40;;;1.73;;
18170;SDS011;9210;48.358;10.902;2023-04-03T14:57:47;2.70;;;1.50;;
18170;SDS011;9210;48.358;10.902;2023-04-03T15:00:16;3.30;;;1.40;;
18170;SDS011;9210;48.358;10.902;2023-04-03T15:02:45;6.10;;;1.63;;
18170;SDS011;9210;48.358;10.902;2023-04-03T15:05:14;7.47;;;1.90;;
18170;SDS011;9210;48.358;10.902;2023-04-03T15:07:44;4.27;;;1.70;;
18170;SDS011;9210;48.358;10.902;2023-04-03T15:10:16;2.67;;;1.50;;
18170;SDS011;9210;48.358;10.902;2023-04-03T15:12:45;3.70;;;1.87;;
18170;SDS011;9210;48.358;10.902;2023-04-03T15:15:16;7.77;;;1.87;;
18170;SDS011;9210;48.358;10.902;2023-04-03T15:17:46;4.33;;;1.50;;
18170;SDS011;9210;48.358;10.902;2023-04-03T15:20:16;2.97;;;1.40;;